sensor_id;sensor_type;location;lat;lon;timestamp;pressure;altitude;pressure_sealevel;temperature;humidity
74973;BME280;63529;56.320;43.990;2023-04-24T07:31:11;99985.31;;;56.16;4.47
74973;BME280;63529;56.320;43.990;2023-04-24T07:33:37;99984.38;;;56.54;4.35
74973;BME280;63529;56.320;43.990;2023-04-24T07:36:04;99970.50;;;56.43;4.39
74973;BME280;63529;56.320;43.990;2023-04-24T07:38:30;99970.06;;;56.46;4.33
74973;BME280;63529;56.320;43.990;2023-04-24T07:40:56;99975.28;;;56.80;4.18
74973;BME280;63529;56.320;43.990;2023-04-24T07:43:22;99980.88;;;57.03;4.24
74973;BME280;63529;56.320;43.990;2023-04-24T07:45:52;99974.84;;;57.42;4.10
74973;BME280;63529;56.320;43.990;2023-04-24T07:48:18;99977.00;;;57.76;4.04
74973;BME280;63529;56.320;43.990;2023-04-24T07:50:44;99973.06;;;57.88;3.60
74973;BME280;63529;56.320;43.990;2023-04-24T07:53:10;99984.19;;;58.02;3.74
74973;BME280;63529;56.320;43.990;2023-04-24T07:55:36;99974.47;;;58.32;3.66
74973;BME280;63529;56.320;43.990;2023-04-24T07:58:03;99975.53;;;58.54;3.44
74973;BME280;63529;56.320;43.990;2023-04-24T08:00:29;99970.91;;;58.68;3.51
74973;BME280;63529;56.320;43.990;2023-04-24T08:02:55;99966.84;;;58.44;3.43
74973;BME280;63529;56.320;43.990;2023-04-24T08:05:21;99964.31;;;58.31;3.57
74973;BME280;63529;56.320;43.990;2023-04-24T08:07:47;99958.22;;;58.27;3.74
74973;BME280;63529;56.320;43.990;2023-04-24T08:10:15;99964.66;;;57.83;3.77
74973;BME280;63529;56.320;43.990;2023-04-24T08:12:41;99959.69;;;57.66;3.88
74973;BME280;63529;56.320;43.990;2023-04-24T08:15:08;99961.59;;;57.63;3.93
74973;BME280;63529;56.320;43.990;2023-04-24T08:17:34;99953.44;;;57.35;3.88
74973;BME280;63529;56.320;43.990;2023-04-24T08:20:02;99961.06;;;57.15;4.01
74973;BME280;63529;56.320;43.990;2023-04-24T08:22:29;99955.44;;;57.00;4.10
74973;BME280;63529;56.320;43.990;2023-04-24T08:24:56;99956.78;;;56.99;3.81
74973;BME280;63529;56.320;43.990;2023-04-24T08:27:26;99953.09;;;56.73;3.90
74973;BME280;63529;56.320;43.990;2023-04-24T08:29:53;99958.53;;;56.62;3.83
74973;BME280;63529;56.320;43.990;2023-04-24T08:32:19;99952.06;;;56.53;4.02
74973;BME280;63529;56.320;43.990;2023-04-24T08:34:45;99951.88;;;56.51;3.97
74973;BME280;63529;56.320;43.990;2023-04-24T08:37:11;99948.69;;;56.40;3.58
74973;BME280;63529;56.320;43.990;2023-04-24T08:39:38;99936.13;;;56.27;4.00
74973;BME280;63529;56.320;43.990;2023-04-24T08:42:05;99938.34;;;55.96;3.92
74973;BME280;63529;56.320;43.990;2023-04-24T08:44:34;99938.56;;;55.91;4.16
74973;BME280;63529;56.320;43.990;2023-04-24T08:47:04;99935.69;;;55.91;4.20
74973;BME280;63529;56.320;43.990;2023-04-24T08:49:30;99932.78;;;55.98;4.19
74973;BME280;63529;56.320;43.990;2023-04-24T08:51:57;99936.63;;;56.01;4.05
74973;BME280;63529;56.320;43.990;2023-04-24T08:54:23;99932.31;;;55.54;3.99
74973;BME280;63529;56.320;43.990;2023-04-24T08:56:53;99919.31;;;54.99;4.09
74973;BME280;63529;56.320;43.990;2023-04-24T08:59:21;99917.28;;;54.05;4.32
74973;BME280;63529;56.320;43.990;2023-04-24T09:01:49;99919.13;;;51.48;5.02
74973;BME280;63529;56.320;43.990;2023-04-24T09:04:17;99913.88;;;47.98;6.14
74973;BME280;63529;56.320;43.990;2023-04-24T09:06:45;99895.69;;;44.58;6.95
74973;BME280;63529;56.320;43.990;2023-04-24T09:09:13;99890.59;;;41.91;8.17
74973;BME280;63529;56.320;43.990;2023-04-24T09:11:39;99896.63;;;39.73;9.07
74973;BME280;63529;56.320;43.990;2023-04-24T09:14:06;99887.13;;;37.91;10.03
74973;BME280;63529;56.320;43.990;2023-04-24T09:16:33;99889.75;;;36.44;10.58
74973;BME280;63529;56.320;43.990;2023-04-24T09:18:59;99893.44;;;35.16;11.03
74973;BME280;63529;56.320;43.990;2023-04-24T09:21:31;99883.59;;;34.01;11.58
74973;BME280;63529;56.320;43.990;2023-04-24T09:23:59;99873.78;;;33.09;12.23
74973;BME280;63529;56.320;43.990;2023-04-24T09:26:25;99881.69;;;32.28;12.70
74973;BME280;63529;56.320;43.990;2023-04-24T09:28:53;99879.72;;;31.66;13.14
74973;BME280;63529;56.320;43.990;2023-04-24T09:31:19;99884.25;;;31.17;13.53
74973;BME280;63529;56.320;43.990;2023-04-24T09:34:00;99892.66;;;30.67;13.73
74973;BME280;63529;56.320;43.990;2023-04-24T09:36:45;99885.25;;;30.14;13.90
74973;BME280;63529;56.320;43.990;2023-04-24T09:39:12;99871.78;;;29.77;14.30
74973;BME280;63529;56.320;43.990;2023-04-24T09:41:57;99876.38;;;29.40;14.78
74973;BME280;63529;56.320;43.990;2023-04-24T09:44:25;99882.19;;;29.17;14.80
74973;BME280;63529;56.320;43.990;2023-04-24T09:46:54;99872.19;;;28.88;14.88
74973;BME280;63529;56.320;43.990;2023-04-24T09:49:23;99873.22;;;28.58;15.16
74973;BME280;63529;56.320;43.990;2023-04-24T09:51:50;99872.25;;;28.33;15.36
74973;BME280;63529;56.320;43.990;2023-04-24T09:54:20;99861.09;;;28.15;15.57
74973;BME280;63529;56.320;43.990;2023-04-24T09:56:50;99866.84;;;27.99;15.38
74973;BME280;63529;56.320;43.990;2023-04-24T09:59:18;99866.22;;;27.76;15.58
74973;BME280;63529;56.320;43.990;2023-04-24T10:01:44;99852.66;;;27.53;15.92
74973;BME280;63529;56.320;43.990;2023-04-24T10:04:20;99860.75;;;27.42;15.95
74973;BME280;63529;56.320;43.990;2023-04-24T10:06:48;99860.28;;;27.37;15.93
74973;BME280;63529;56.320;43.990;2023-04-24T10:09:15;99855.91;;;27.32;16.06
74973;BME280;63529;56.320;43.990;2023-04-24T10:11:43;99855.84;;;27.25;16.02
74973;BME280;63529;56.320;43.990;2023-04-24T10:14:18;99857.72;;;27.17;16.07
74973;BME280;63529;56.320;43.990;2023-04-24T10:16:44;99859.41;;;26.99;16.37
74973;BME280;63529;56.320;43.990;2023-04-24T10:19:13;99849.84;;;26.86;16.26
74973;BME280;63529;56.320;43.990;2023-04-24T10:21:42;99843.38;;;26.71;16.17
74973;BME280;63529;56.320;43.990;2023-04-24T10:24:12;99854.16;;;26.60;16.31
74973;BME280;63529;56.320;43.990;2023-04-24T10:26:40;99843.13;;;26.53;16.32
74973;BME280;63529;56.320;43.990;2023-04-24T10:29:06;99839.94;;;26.47;16.42
74973;BME280;63529;56.320;43.990;2023-04-24T10:31:36;99845.34;;;26.44;16.30
74973;BME280;63529;56.320;43.990;2023-04-24T10:34:03;99845.59;;;26.35;16.68
74973;BME280;63529;56.320;43.990;2023-04-24T10:36:30;99844.66;;;26.28;16.63
74973;BME280;63529;56.320;43.990;2023-04-24T10:39:00;99839.53;;;26.22;16.58
74973;BME280;63529;56.320;43.990;2023-04-24T10:41:26;99846.81;;;26.15;16.77
74973;BME280;63529;56.320;43.990;2023-04-24T10:44:13;99837.28;;;26.05;16.87
74973;BME280;63529;56.320;43.990;2023-04-24T10:46:43;99835.50;;;25.93;16.87
74973;BME280;63529;56.320;43.990;2023-04-24T10:49:09;99839.66;;;25.84;16.81
74973;BME280;63529;56.320;43.990;2023-04-24T10:54:46;99826.50;;;25.70;17.01
74973;BME280;63529;56.320;43.990;2023-04-24T10:59:49;99834.19;;;25.64;17.27
74973;BME280;63529;56.320;43.990;2023-04-24T11:02:17;99823.19;;;25.61;17.07
74973;BME280;63529;56.320;43.990;2023-04-24T11:04:44;99822.41;;;25.60;17.26
74973;BME280;63529;56.320;43.990;2023-04-24T11:07:13;99823.28;;;25.64;17.26
74973;BME280;63529;56.320;43.990;2023-04-24T11:09:39;99819.38;;;25.65;17.12
74973;BME280;63529;56.320;43.990;2023-04-24T11:12:10;99808.06;;;25.67;17.28
74973;BME280;63529;56.320;43.990;2023-04-24T11:17:38;99808.06;;;25.67;17.28
74973;BME280;63529;56.320;43.990;2023-04-24T11:20:10;99807.69;;;25.68;17.25
74973;BME280;63529;56.320;43.990;2023-04-24T11:22:38;99808.03;;;25.63;17.13
74973;BME280;63529;56.320;43.990;2023-04-24T11:25:06;99810.25;;;25.58;17.08
74973;BME280;63529;56.320;43.990;2023-04-24T11:27:39;99795.31;;;25.52;17.28
74973;BME280;63529;56.320;43.990;2023-04-24T11:30:06;99802.66;;;25.48;17.21
74973;BME280;63529;56.320;43.990;2023-04-24T11:37:35;99800.66;;;25.44;17.01
74973;BME280;63529;56.320;43.990;2023-04-24T11:40:03;99804.97;;;25.46;17.01
74973;BME280;63529;56.320;43.990;2023-04-24T11:42:37;99790.09;;;25.43;17.04
74973;BME280;63529;56.320;43.990;2023-04-24T11:45:11;99795.84;;;25.38;17.33
74973;BME280;63529;56.320;43.990;2023-04-24T11:47:38;99796.13;;;25.33;17.46
74973;BME280;63529;56.320;43.990;2023-04-24T11:50:07;99790.13;;;25.24;18.03
74973;BME280;63529;56.320;43.990;2023-04-24T11:52:36;99797.44;;;25.20;18.35
74973;BME280;63529;56.320;43.990;2023-04-24T11:55:03;99787.97;;;25.13;18.28
74973;BME280;63529;56.320;43.990;2023-04-24T11:57:30;99780.03;;;25.08;18.13
74973;BME280;63529;56.320;43.990;2023-04-24T12:00:00;99774.84;;;25.03;17.90
74973;BME280;63529;56.320;43.990;2023-04-24T12:02:29;99770.16;;;25.04;18.13
74973;BME280;63529;56.320;43.990;2023-04-24T12:04:55;99777.56;;;25.03;18.17
74973;BME280;63529;56.320;43.990;2023-04-24T12:07:22;99778.47;;;25.07;18.12
74973;BME280;63529;56.320;43.990;2023-04-24T12:09:58;99775.44;;;25.12;18.23
74973;BME280;63529;56.320;43.990;2023-04-24T12:12:28;99764.91;;;25.11;17.96
74973;BME280;63529;56.320;43.990;2023-04-24T12:14:56;99768.75;;;25.10;17.84
74973;BME280;63529;56.320;43.990;2023-04-24T12:19:57;99761.78;;;25.12;17.72
74973;BME280;63529;56.320;43.990;2023-04-24T12:22:25;99752.44;;;25.13;17.73
74973;BME280;63529;56.320;43.990;2023-04-24T12:25:04;99760.63;;;25.13;17.65
74973;BME280;63529;56.320;43.990;2023-04-24T12:27:37;99755.19;;;25.13;17.53
74973;BME280;63529;56.320;43.990;2023-04-24T12:30:05;99753.59;;;25.12;17.54
74973;BME280;63529;56.320;43.990;2023-04-24T12:32:34;99752.03;;;25.11;17.64
74973;BME280;63529;56.320;43.990;2023-04-24T12:34:59;99748.06;;;25.09;17.45
74973;BME280;63529;56.320;43.990;2023-04-24T12:37:26;99748.31;;;25.04;17.46
74973;BME280;63529;56.320;43.990;2023-04-24T12:42:29;99748.97;;;24.97;17.43
74973;BME280;63529;56.320;43.990;2023-04-24T12:45:00;99750.50;;;24.95;17.45
74973;BME280;63529;56.320;43.990;2023-04-24T12:47:29;99736.78;;;24.91;17.47
74973;BME280;63529;56.320;43.990;2023-04-24T12:49:55;99735.91;;;24.87;17.58
74973;BME280;63529;56.320;43.990;2023-04-24T12:52:22;99736.63;;;24.84;17.52
74973;BME280;63529;56.320;43.990;2023-04-24T12:54:53;99734.63;;;24.81;17.67
74973;BME280;63529;56.320;43.990;2023-04-24T12:57:21;99734.97;;;24.79;17.74
74973;BME280;63529;56.320;43.990;2023-04-24T12:59:47;99736.47;;;24.77;17.68
74973;BME280;63529;56.320;43.990;2023-04-24T13:02:13;99720.41;;;24.72;17.70
74973;BME280;63529;56.320;43.990;2023-04-24T13:04:40;99726.16;;;24.67;17.64
74973;BME280;63529;56.320;43.990;2023-04-24T13:07:05;99726.84;;;24.63;17.85
74973;BME280;63529;56.320;43.990;2023-04-24T13:09:31;99712.69;;;24.58;17.78
74973;BME280;63529;56.320;43.990;2023-04-24T13:11:58;99719.31;;;24.57;18.12
74973;BME280;63529;56.320;43.990;2023-04-24T13:14:24;99722.03;;;24.57;18.00
74973;BME280;63529;56.320;43.990;2023-04-24T13:16:50;99716.94;;;24.55;18.10
74973;BME280;63529;56.320;43.990;2023-04-24T13:19:18;99711.41;;;24.52;17.81
74973;BME280;63529;56.320;43.990;2023-04-24T13:21:44;99710.19;;;24.49;17.96
74973;BME280;63529;56.320;43.990;2023-04-24T13:24:14;99707.03;;;24.47;18.02
74973;BME280;63529;56.320;43.990;2023-04-24T13:26:45;99711.69;;;24.47;18.25
74973;BME280;63529;56.320;43.990;2023-04-24T13:29:12;99710.91;;;24.46;18.21
74973;BME280;63529;56.320;43.990;2023-04-24T13:31:38;99706.59;;;24.45;18.33
74973;BME280;63529;56.320;43.990;2023-04-24T13:34:04;99701.84;;;24.42;18.10
74973;BME280;63529;56.320;43.990;2023-04-24T13:36:30;99710.75;;;24.39;18.18
74973;BME280;63529;56.320;43.990;2023-04-24T13:38:57;99704.84;;;24.37;18.24
74973;BME280;63529;56.320;43.990;2023-04-24T13:41:23;99698.19;;;24.34;18.28
74973;BME280;63529;56.320;43.990;2023-04-24T13:43:48;99705.59;;;24.34;18.14
74973;BME280;63529;56.320;43.990;2023-04-24T13:46:14;99687.50;;;24.29;18.12
74973;BME280;63529;56.320;43.990;2023-04-24T13:48:40;99697.22;;;24.27;18.14
74973;BME280;63529;56.320;43.990;2023-04-24T13:51:06;99691.66;;;24.23;18.35
74973;BME280;63529;56.320;43.990;2023-04-24T13:53:32;99697.50;;;24.22;18.42
74973;BME280;63529;56.320;43.990;2023-04-24T13:55:58;99683.75;;;24.18;18.37
74973;BME280;63529;56.320;43.990;2023-04-24T13:58:24;99684.78;;;24.45;18.08
74973;BME280;63529;56.320;43.990;2023-04-24T14:00:50;99680.59;;;24.51;18.13
74973;BME280;63529;56.320;43.990;2023-04-24T14:03:16;99675.72;;;24.41;18.16
74973;BME280;63529;56.320;43.990;2023-04-24T14:05:42;99672.72;;;24.30;18.14
74973;BME280;63529;56.320;43.990;2023-04-24T14:08:08;99670.56;;;24.20;18.39
74973;BME280;63529;56.320;43.990;2023-04-24T14:10:34;99680.88;;;24.11;18.44
74973;BME280;63529;56.320;43.990;2023-04-24T14:13:00;99674.47;;;24.03;18.30
74973;BME280;63529;56.320;43.990;2023-04-24T14:15:26;99670.81;;;23.96;18.42
74973;BME280;63529;56.320;43.990;2023-04-24T14:17:52;99666.78;;;23.90;18.39
74973;BME280;63529;56.320;43.990;2023-04-24T14:20:18;99670.56;;;23.85;18.39
74973;BME280;63529;56.320;43.990;2023-04-24T14:22:45;99663.81;;;23.79;18.43
74973;BME280;63529;56.320;43.990;2023-04-24T14:25:11;99658.19;;;23.72;18.38
74973;BME280;63529;56.320;43.990;2023-04-24T14:27:36;99662.31;;;23.66;18.39
74973;BME280;63529;56.320;43.990;2023-04-24T14:30:03;99665.22;;;23.57;18.35
74973;BME280;63529;56.320;43.990;2023-04-24T14:32:30;99664.25;;;23.49;18.28
74973;BME280;63529;56.320;43.990;2023-04-24T14:34:56;99664.09;;;23.42;18.40
74973;BME280;63529;56.320;43.990;2023-04-24T14:37:22;99658.78;;;23.34;18.34
74973;BME280;63529;56.320;43.990;2023-04-24T14:39:48;99661.00;;;23.28;18.59
74973;BME280;63529;56.320;43.990;2023-04-24T14:42:14;99657.28;;;23.20;18.51
74973;BME280;63529;56.320;43.990;2023-04-24T14:44:40;99656.78;;;23.15;18.65
74973;BME280;63529;56.320;43.990;2023-04-24T14:47:06;99653.53;;;23.09;18.71
74973;BME280;63529;56.320;43.990;2023-04-24T14:49:31;99651.50;;;23.06;18.64
74973;BME280;63529;56.320;43.990;2023-04-24T14:51:58;99655.25;;;23.01;18.73
74973;BME280;63529;56.320;43.990;2023-04-24T14:54:23;99658.25;;;22.96;18.90
74973;BME280;63529;56.320;43.990;2023-04-24T14:56:50;99663.16;;;22.91;18.86
74973;BME280;63529;56.320;43.990;2023-04-24T14:59:16;99647.88;;;22.86;18.95
74973;BME280;63529;56.320;43.990;2023-04-24T15:01:42;99653.09;;;22.79;19.20
74973;BME280;63529;56.320;43.990;2023-04-24T15:04:08;99651.41;;;22.74;19.25
74973;BME280;63529;56.320;43.990;2023-04-24T15:06:35;99653.25;;;22.70;19.27
74973;BME280;63529;56.320;43.990;2023-04-24T15:09:01;99654.28;;;22.66;19.14
74973;BME280;63529;56.320;43.990;2023-04-24T15:11:27;99651.03;;;22.60;19.44
74973;BME280;63529;56.320;43.990;2023-04-24T15:13:53;99650.03;;;22.53;19.35
74973;BME280;63529;56.320;43.990;2023-04-24T15:16:19;99653.22;;;22.42;19.48
74973;BME280;63529;56.320;43.990;2023-04-24T15:18:45;99648.72;;;22.34;19.51
74973;BME280;63529;56.320;43.990;2023-04-24T15:21:11;99648.09;;;22.25;19.57
74973;BME280;63529;56.320;43.990;2023-04-24T15:23:38;99652.06;;;22.15;19.72
74973;BME280;63529;56.320;43.990;2023-04-24T15:26:04;99646.38;;;22.08;19.98
74973;BME280;63529;56.320;43.990;2023-04-24T15:28:30;99649.25;;;22.00;20.07
74973;BME280;63529;56.320;43.990;2023-04-24T15:30:55;99646.66;;;21.91;20.10
74973;BME280;63529;56.320;43.990;2023-04-24T15:33:21;99649.84;;;21.81;20.30
74973;BME280;63529;56.320;43.990;2023-04-24T15:35:47;99639.88;;;21.73;20.33
74973;BME280;63529;56.320;43.990;2023-04-24T15:38:14;99640.13;;;21.67;20.30
74973;BME280;63529;56.320;43.990;2023-04-24T15:40:40;99648.13;;;21.64;20.29
74973;BME280;63529;56.320;43.990;2023-04-24T15:43:06;99646.78;;;21.58;20.25
74973;BME280;63529;56.320;43.990;2023-04-24T15:45:32;99644.53;;;21.48;20.29
74973;BME280;63529;56.320;43.990;2023-04-24T15:47:58;99643.38;;;21.36;20.42
74973;BME280;63529;56.320;43.990;2023-04-24T15:50:26;99644.91;;;21.25;20.54
74973;BME280;63529;56.320;43.990;2023-04-24T15:52:51;99650.34;;;21.13;20.74
74973;BME280;63529;56.320;43.990;2023-04-24T15:55:17;99647.63;;;21.01;20.70
74973;BME280;63529;56.320;43.990;2023-04-24T15:57:43;99642.59;;;20.91;20.88
74973;BME280;63529;56.320;43.990;2023-04-24T16:00:12;99649.91;;;20.78;20.98
74973;BME280;63529;56.320;43.990;2023-04-24T16:02:38;99651.13;;;20.68;21.13
74973;BME280;63529;56.320;43.990;2023-04-24T16:05:05;99649.28;;;20.60;21.27
74973;BME280;63529;56.320;43.990;2023-04-24T16:07:33;99654.78;;;20.51;21.45
74973;BME280;63529;56.320;43.990;2023-04-24T16:09:59;99651.63;;;20.41;21.47
74973;BME280;63529;56.320;43.990;2023-04-24T16:12:25;99650.59;;;20.33;21.81
74973;BME280;63529;56.320;43.990;2023-04-24T16:14:53;99653.38;;;20.24;22.02
74973;BME280;63529;56.320;43.990;2023-04-24T16:17:19;99656.47;;;20.14;21.92
74973;BME280;63529;56.320;43.990;2023-04-24T16:19:46;99658.00;;;20.03;22.16
74973;BME280;63529;56.320;43.990;2023-04-24T16:22:11;99663.78;;;19.93;22.40
74973;BME280;63529;56.320;43.990;2023-04-24T16:24:37;99665.75;;;19.84;22.56
74973;BME280;63529;56.320;43.990;2023-04-24T16:27:03;99668.03;;;19.73;22.70
74973;BME280;63529;56.320;43.990;2023-04-24T16:29:29;99671.94;;;19.63;22.96
74973;BME280;63529;56.320;43.990;2023-04-24T16:31:55;99670.34;;;19.53;23.33
74973;BME280;63529;56.320;43.990;2023-04-24T16:34:21;99672.44;;;19.48;23.35
74973;BME280;63529;56.320;43.990;2023-04-24T16:36:47;99675.31;;;19.43;23.45
74973;BME280;63529;56.320;43.990;2023-04-24T16:39:13;99676.13;;;19.35;23.58
74973;BME280;63529;56.320;43.990;2023-04-24T16:41:39;99679.69;;;19.27;23.88
74973;BME280;63529;56.320;43.990;2023-04-24T16:44:05;99684.78;;;19.19;23.93
74973;BME280;63529;56.320;43.990;2023-04-24T16:46:30;99687.19;;;19.12;24.01
74973;BME280;63529;56.320;43.990;2023-04-24T16:48:56;99692.31;;;19.05;24.06
74973;BME280;63529;56.320;43.990;2023-04-24T16:51:22;99693.75;;;18.94;24.04
74973;BME280;63529;56.320;43.990;2023-04-24T16:53:48;99697.28;;;18.86;24.26
74973;BME280;63529;56.320;43.990;2023-04-24T16:56:14;99700.75;;;18.78;24.33
74973;BME280;63529;56.320;43.990;2023-04-24T16:58:40;99699.38;;;18.72;24.55
74973;BME280;63529;56.320;43.990;2023-04-24T17:01:06;99700.91;;;18.64;24.59
74973;BME280;63529;56.320;43.990;2023-04-24T17:03:32;99702.16;;;18.58;24.79
74973;BME280;63529;56.320;43.990;2023-04-24T17:05:57;99708.22;;;18.55;24.84
74973;BME280;63529;56.320;43.990;2023-04-24T17:08:23;99708.06;;;18.51;25.03
74973;BME280;63529;56.320;43.990;2023-04-24T17:10:49;99711.72;;;18.47;24.98
74973;BME280;63529;56.320;43.990;2023-04-24T17:13:15;99711.09;;;18.41;24.99
74973;BME280;63529;56.320;43.990;2023-04-24T17:15:41;99712.81;;;18.37;25.02
74973;BME280;63529;56.320;43.990;2023-04-24T17:18:07;99711.56;;;18.34;25.05
74973;BME280;63529;56.320;43.990;2023-04-24T17:20:33;99722.19;;;18.31;25.01
74973;BME280;63529;56.320;43.990;2023-04-24T17:22:59;99716.31;;;18.29;25.05
74973;BME280;63529;56.320;43.990;2023-04-24T17:25:24;99716.97;;;18.26;24.94
74973;BME280;63529;56.320;43.990;2023-04-24T17:27:51;99726.78;;;18.22;24.93
74973;BME280;63529;56.320;43.990;2023-04-24T17:30:16;99729.63;;;18.16;25.03
74973;BME280;63529;56.320;43.990;2023-04-24T17:32:42;99733.28;;;18.12;25.06
74973;BME280;63529;56.320;43.990;2023-04-24T17:35:08;99731.22;;;18.09;25.04
74973;BME280;63529;56.320;43.990;2023-04-24T17:37:35;99732.94;;;18.05;25.10
74973;BME280;63529;56.320;43.990;2023-04-24T17:40:01;99740.56;;;18.03;25.10
74973;BME280;63529;56.320;43.990;2023-04-24T17:42:28;99740.09;;;18.01;25.05
74973;BME280;63529;56.320;43.990;2023-04-24T17:44:54;99739.59;;;17.99;25.11
74973;BME280;63529;56.320;43.990;2023-04-24T17:47:20;99743.25;;;17.94;25.14
74973;BME280;63529;56.320;43.990;2023-04-24T17:49:47;99745.28;;;17.88;25.30
74973;BME280;63529;56.320;43.990;2023-04-24T17:52:13;99749.25;;;17.82;25.34
74973;BME280;63529;56.320;43.990;2023-04-24T17:54:40;99747.94;;;17.80;25.55
74973;BME280;63529;56.320;43.990;2023-04-24T17:57:06;99753.50;;;17.75;25.57
74973;BME280;63529;56.320;43.990;2023-04-24T17:59:32;99757.09;;;17.70;25.47
74973;BME280;63529;56.320;43.990;2023-04-24T18:01:58;99758.03;;;17.66;25.73
74973;BME280;63529;56.320;43.990;2023-04-24T18:04:24;99753.72;;;17.64;25.74
74973;BME280;63529;56.320;43.990;2023-04-24T18:06:50;99754.97;;;17.58;25.76
74973;BME280;63529;56.320;43.990;2023-04-24T18:09:16;99758.31;;;17.55;25.85
74973;BME280;63529;56.320;43.990;2023-04-24T18:11:45;99759.22;;;17.51;25.95
74973;BME280;63529;56.320;43.990;2023-04-24T18:14:12;99762.69;;;17.43;25.99
74973;BME280;63529;56.320;43.990;2023-04-24T18:16:38;99762.00;;;17.37;26.14
74973;BME280;63529;56.320;43.990;2023-04-24T18:19:04;99764.03;;;17.31;26.19
74973;BME280;63529;56.320;43.990;2023-04-24T18:21:30;99770.06;;;17.28;26.29
74973;BME280;63529;56.320;43.990;2023-04-24T18:23:56;99767.78;;;17.22;26.30
74973;BME280;63529;56.320;43.990;2023-04-24T18:26:25;99769.97;;;17.20;26.42
74973;BME280;63529;56.320;43.990;2023-04-24T18:28:51;99773.63;;;17.15;26.60
74973;BME280;63529;56.320;43.990;2023-04-24T18:31:17;99774.69;;;17.14;26.67
74973;BME280;63529;56.320;43.990;2023-04-24T18:33:43;99773.91;;;17.14;26.60
74973;BME280;63529;56.320;43.990;2023-04-24T18:36:09;99776.13;;;17.12;26.78
74973;BME280;63529;56.320;43.990;2023-04-24T18:38:35;99771.84;;;17.11;26.48
74973;BME280;63529;56.320;43.990;2023-04-24T18:41:01;99783.41;;;17.11;26.55
74973;BME280;63529;56.320;43.990;2023-04-24T18:43:27;99774.84;;;17.09;26.57
74973;BME280;63529;56.320;43.990;2023-04-24T18:45:53;99777.81;;;17.07;26.66
74973;BME280;63529;56.320;43.990;2023-04-24T18:48:19;99785.44;;;17.05;27.02
74973;BME280;63529;56.320;43.990;2023-04-24T18:50:44;99786.34;;;17.01;27.30
74973;BME280;63529;56.320;43.990;2023-04-24T18:53:10;99795.84;;;16.98;27.16
74973;BME280;63529;56.320;43.990;2023-04-24T18:55:39;99790.25;;;16.95;27.39
74973;BME280;63529;56.320;43.990;2023-04-24T18:58:05;99791.19;;;16.90;27.56
74973;BME280;63529;56.320;43.990;2023-04-24T19:00:31;99802.88;;;16.86;27.81
74973;BME280;63529;56.320;43.990;2023-04-24T19:02:57;99803.78;;;16.81;28.06
74973;BME280;63529;56.320;43.990;2023-04-24T19:05:23;99805.78;;;16.75;28.19
74973;BME280;63529;56.320;43.990;2023-04-24T19:07:48;99814.81;;;16.71;28.41
74973;BME280;63529;56.320;43.990;2023-04-24T19:10:14;99815.97;;;16.65;28.60
74973;BME280;63529;56.320;43.990;2023-04-24T19:12:41;99828.75;;;16.59;28.60
74973;BME280;63529;56.320;43.990;2023-04-24T19:15:07;99827.56;;;16.51;29.00
74973;BME280;63529;56.320;43.990;2023-04-24T19:17:36;99825.59;;;16.43;29.29
74973;BME280;63529;56.320;43.990;2023-04-24T19:20:02;99826.28;;;16.35;29.48
74973;BME280;63529;56.320;43.990;2023-04-24T19:22:29;99839.34;;;16.28;29.93
74973;BME280;63529;56.320;43.990;2023-04-24T19:24:55;99832.47;;;16.22;30.40
74973;BME280;63529;56.320;43.990;2023-04-24T19:27:23;99834.75;;;16.15;30.64
74973;BME280;63529;56.320;43.990;2023-04-24T19:29:49;99838.34;;;16.10;30.80
74973;BME280;63529;56.320;43.990;2023-04-24T19:32:16;99838.72;;;16.04;31.43
74973;BME280;63529;56.320;43.990;2023-04-24T19:34:42;99844.50;;;15.97;31.70
74973;BME280;63529;56.320;43.990;2023-04-24T19:37:08;99837.34;;;15.92;31.97
74973;BME280;63529;56.320;43.990;2023-04-24T19:39:34;99837.44;;;15.87;32.16
74973;BME280;63529;56.320;43.990;2023-04-24T19:42:00;99839.09;;;15.83;32.42
74973;BME280;63529;56.320;43.990;2023-04-24T19:44:27;99841.91;;;15.78;32.61
74973;BME280;63529;56.320;43.990;2023-04-24T19:46:53;99844.38;;;15.74;32.87
74973;BME280;63529;56.320;43.990;2023-04-24T19:49:18;99845.25;;;15.70;32.81
74973;BME280;63529;56.320;43.990;2023-04-24T19:51:44;99848.06;;;15.65;32.92
74973;BME280;63529;56.320;43.990;2023-04-24T19:54:10;99849.69;;;15.61;33.29
74973;BME280;63529;56.320;43.990;2023-04-24T19:56:36;99846.28;;;15.55;33.60
74973;BME280;63529;56.320;43.990;2023-04-24T19:59:02;99849.06;;;15.50;33.48
74973;BME280;63529;56.320;43.990;2023-04-24T20:01:28;99850.75;;;15.46;33.84
74973;BME280;63529;56.320;43.990;2023-04-24T20:03:54;99858.09;;;15.40;33.94
74973;BME280;63529;56.320;43.990;2023-04-24T20:06:20;99852.50;;;15.37;34.08
74973;BME280;63529;56.320;43.990;2023-04-24T20:08:46;99855.25;;;15.32;34.24
74973;BME280;63529;56.320;43.990;2023-04-24T20:11:13;99851.88;;;15.26;34.57
74973;BME280;63529;56.320;43.990;2023-04-24T20:13:39;99858.63;;;15.24;34.50
74973;BME280;63529;56.320;43.990;2023-04-24T20:16:04;99857.63;;;15.19;34.83
74973;BME280;63529;56.320;43.990;2023-04-24T20:18:32;99861.66;;;15.17;35.03
74973;BME280;63529;56.320;43.990;2023-04-24T20:20:58;99859.03;;;15.12;35.08
74973;BME280;63529;56.320;43.990;2023-04-24T20:23:25;99856.47;;;15.07;35.21
74973;BME280;63529;56.320;43.990;2023-04-24T20:25:51;99858.13;;;15.03;35.37
74973;BME280;63529;56.320;43.990;2023-04-24T20:28:27;99860.88;;;14.98;35.73
74973;BME280;63529;56.320;43.990;2023-04-24T20:30:54;99869.22;;;14.96;35.76
74973;BME280;63529;56.320;43.990;2023-04-24T20:33:20;99869.53;;;14.95;36.10
74973;BME280;63529;56.320;43.990;2023-04-24T20:35:46;99873.88;;;14.90;36.12
74973;BME280;63529;56.320;43.990;2023-04-24T20:38:14;99877.94;;;14.88;36.29